sensor_id;sensor_type;location;lat;lon;timestamp;pressure;altitude;pressure_sealevel;temperature;humidity
80693;BME280;70055;39.436;-77.514;2023-05-10T00:00:54;99497.87;;;27.20;22.97
80693;BME280;70055;39.436;-77.514;2023-05-10T00:03:22;99504.76;;;27.24;22.93
80693;BME280;70055;39.436;-77.514;2023-05-10T00:05:51;99515.70;;;26.84;23.32
80693;BME280;70055;39.436;-77.514;2023-05-10T00:08:19;99524.06;;;27.10;23.22
80693;BME280;70055;39.436;-77.514;2023-05-10T00:10:47;99531.90;;;26.79;23.35
80693;BME280;70055;39.436;-77.514;2023-05-10T00:13:15;99535.88;;;26.90;23.35
80693;BME280;70055;39.436;-77.514;2023-05-10T00:15:43;99538.30;;;26.93;23.43
80693;BME280;70055;39.436;-77.514;2023-05-10T00:18:11;99543.22;;;26.98;23.48
80693;BME280;70055;39.436;-77.514;2023-05-10T00:20:40;99548.85;;;26.64;23.68
80693;BME280;70055;39.436;-77.514;2023-05-10T00:23:08;99552.53;;;26.92;23.61
80693;BME280;70055;39.436;-77.514;2023-05-10T00:25:36;99558.17;;;26.95;23.57
80693;BME280;70055;39.436;-77.514;2023-05-10T00:28:04;99562.12;;;26.82;23.65
80693;BME280;70055;39.436;-77.514;2023-05-10T00:30:32;99565.23;;;26.57;24.05
80693;BME280;70055;39.436;-77.514;2023-05-10T00:33:01;99575.58;;;26.79;23.92
80693;BME280;70055;39.436;-77.514;2023-05-10T00:35:29;99581.05;;;26.82;23.78
80693;BME280;70055;39.436;-77.514;2023-05-10T00:37:57;99586.49;;;27.04;23.67
80693;BME280;70055;39.436;-77.514;2023-05-10T00:40:24;99591.65;;;26.24;24.32
80693;BME280;70055;39.436;-77.514;2023-05-10T00:42:53;99598.39;;;26.90;23.89
80693;BME280;70055;39.436;-77.514;2023-05-10T00:45:21;99605.78;;;26.16;24.09
80693;BME280;70055;39.436;-77.514;2023-05-10T00:47:49;99608.94;;;26.67;24.10
80693;BME280;70055;39.436;-77.514;2023-05-10T00:50:17;99613.15;;;26.42;24.15
80693;BME280;70055;39.436;-77.514;2023-05-10T00:52:46;99619.98;;;26.10;24.19
80693;BME280;70055;39.436;-77.514;2023-05-10T00:55:14;99622.72;;;26.65;24.01
80693;BME280;70055;39.436;-77.514;2023-05-10T00:57:43;99626.51;;;26.52;24.17
80693;BME280;70055;39.436;-77.514;2023-05-10T01:00:13;99626.28;;;26.34;24.40
80693;BME280;70055;39.436;-77.514;2023-05-10T01:02:41;99630.85;;;26.92;23.80
80693;BME280;70055;39.436;-77.514;2023-05-10T01:05:09;99633.93;;;26.99;23.47
80693;BME280;70055;39.436;-77.514;2023-05-10T01:07:39;99637.60;;;26.92;23.59
80693;BME280;70055;39.436;-77.514;2023-05-10T01:10:07;99639.93;;;26.92;23.57
80693;BME280;70055;39.436;-77.514;2023-05-10T01:12:38;99645.11;;;26.84;23.64
80693;BME280;70055;39.436;-77.514;2023-05-10T01:15:08;99648.40;;;26.74;23.75
80693;BME280;70055;39.436;-77.514;2023-05-10T01:17:39;99646.74;;;26.86;23.61
80693;BME280;70055;39.436;-77.514;2023-05-10T01:20:11;99647.04;;;26.62;23.76
80693;BME280;70055;39.436;-77.514;2023-05-10T01:23:40;99652.45;;;26.55;23.82
80693;BME280;70055;39.436;-77.514;2023-05-10T01:26:25;99661.48;;;26.63;23.76
80693;BME280;70055;39.436;-77.514;2023-05-10T01:29:12;99665.21;;;26.47;23.89
80693;BME280;70055;39.436;-77.514;2023-05-10T01:32:10;99668.20;;;26.45;23.87
80693;BME280;70055;39.436;-77.514;2023-05-10T01:34:47;99669.89;;;26.49;23.79
80693;BME280;70055;39.436;-77.514;2023-05-10T01:37:21;99669.53;;;26.49;23.86
80693;BME280;70055;39.436;-77.514;2023-05-10T01:39:58;99673.92;;;26.39;23.67
80693;BME280;70055;39.436;-77.514;2023-05-10T01:42:34;99673.17;;;26.79;23.72
80693;BME280;70055;39.436;-77.514;2023-05-10T01:45:14;99677.74;;;26.52;23.73
80693;BME280;70055;39.436;-77.514;2023-05-10T01:47:44;99687.53;;;26.50;23.72
80693;BME280;70055;39.436;-77.514;2023-05-10T01:50:18;99690.53;;;26.72;23.48
80693;BME280;70055;39.436;-77.514;2023-05-10T01:52:53;99696.62;;;26.69;23.53
80693;BME280;70055;39.436;-77.514;2023-05-10T01:55:23;99698.26;;;26.75;23.38
80693;BME280;70055;39.436;-77.514;2023-05-10T01:57:57;99702.00;;;26.55;23.48
80693;BME280;70055;39.436;-77.514;2023-05-10T02:00:27;99701.46;;;25.99;23.57
80693;BME280;70055;39.436;-77.514;2023-05-10T02:02:57;99698.79;;;26.71;23.54
80693;BME280;70055;39.436;-77.514;2023-05-10T02:05:27;99698.46;;;26.31;23.59
80693;BME280;70055;39.436;-77.514;2023-05-10T02:07:58;99700.52;;;26.35;23.59
80693;BME280;70055;39.436;-77.514;2023-05-10T02:10:28;99704.06;;;26.31;23.60
80693;BME280;70055;39.436;-77.514;2023-05-10T02:12:59;99702.83;;;26.60;23.55
80693;BME280;70055;39.436;-77.514;2023-05-10T02:15:28;99697.54;;;26.23;23.63
80693;BME280;70055;39.436;-77.514;2023-05-10T02:17:59;99695.26;;;26.44;23.63
80693;BME280;70055;39.436;-77.514;2023-05-10T02:20:28;99700.17;;;26.06;23.70
80693;BME280;70055;39.436;-77.514;2023-05-10T02:22:58;99703.21;;;25.97;23.75
80693;BME280;70055;39.436;-77.514;2023-05-10T02:25:27;99703.60;;;26.30;23.74
80693;BME280;70055;39.436;-77.514;2023-05-10T02:27:57;99707.53;;;26.23;23.75
80693;BME280;70055;39.436;-77.514;2023-05-10T02:30:28;99708.66;;;25.63;23.83
80693;BME280;70055;39.436;-77.514;2023-05-10T02:32:58;99714.18;;;25.77;23.85
80693;BME280;70055;39.436;-77.514;2023-05-10T02:35:26;99717.27;;;26.03;23.86
80693;BME280;70055;39.436;-77.514;2023-05-10T02:37:55;99717.95;;;25.79;23.75
80693;BME280;70055;39.436;-77.514;2023-05-10T02:40:26;99718.86;;;25.62;23.88
80693;BME280;70055;39.436;-77.514;2023-05-10T02:42:56;99721.85;;;25.80;23.67
80693;BME280;70055;39.436;-77.514;2023-05-10T02:45:27;99721.70;;;25.57;23.89
80693;BME280;70055;39.436;-77.514;2023-05-10T02:47:56;99723.06;;;25.93;23.52
80693;BME280;70055;39.436;-77.514;2023-05-10T02:50:27;99729.57;;;25.56;23.83
80693;BME280;70055;39.436;-77.514;2023-05-10T02:53:00;99733.36;;;26.09;23.57
80693;BME280;70055;39.436;-77.514;2023-05-10T02:55:36;99749.35;;;25.64;23.68
80693;BME280;70055;39.436;-77.514;2023-05-10T02:58:06;99762.97;;;25.88;23.67
80693;BME280;70055;39.436;-77.514;2023-05-10T03:00:35;99767.98;;;26.25;23.53
80693;BME280;70055;39.436;-77.514;2023-05-10T03:03:03;99760.64;;;25.88;23.81
80693;BME280;70055;39.436;-77.514;2023-05-10T03:05:30;99766.94;;;26.09;23.45
80693;BME280;70055;39.436;-77.514;2023-05-10T03:07:58;99770.96;;;25.44;23.73
80693;BME280;70055;39.436;-77.514;2023-05-10T03:10:30;99768.86;;;25.62;23.54
80693;BME280;70055;39.436;-77.514;2023-05-10T03:13:09;99772.93;;;25.69;23.46
80693;BME280;70055;39.436;-77.514;2023-05-10T03:15:49;99773.23;;;25.90;23.49
80693;BME280;70055;39.436;-77.514;2023-05-10T03:18:25;99775.25;;;25.85;23.48
80693;BME280;70055;39.436;-77.514;2023-05-10T03:20:59;99776.80;;;26.42;23.16
80693;BME280;70055;39.436;-77.514;2023-05-10T03:23:34;99776.07;;;25.67;23.56
80693;BME280;70055;39.436;-77.514;2023-05-10T03:26:03;99779.59;;;26.29;23.21
80693;BME280;70055;39.436;-77.514;2023-05-10T03:28:33;99783.51;;;25.44;23.50
80693;BME280;70055;39.436;-77.514;2023-05-10T03:31:02;99790.10;;;25.85;23.55
80693;BME280;70055;39.436;-77.514;2023-05-10T03:33:32;99791.02;;;25.71;23.47
80693;BME280;70055;39.436;-77.514;2023-05-10T03:36:00;99794.82;;;25.97;23.39
80693;BME280;70055;39.436;-77.514;2023-05-10T03:38:28;99807.01;;;25.95;23.35
80693;BME280;70055;39.436;-77.514;2023-05-10T03:40:56;99809.87;;;26.01;23.34
80693;BME280;70055;39.436;-77.514;2023-05-10T03:43:24;99817.86;;;25.82;23.27
80693;BME280;70055;39.436;-77.514;2023-05-10T03:45:52;99817.08;;;25.86;23.22
80693;BME280;70055;39.436;-77.514;2023-05-10T03:48:20;99816.43;;;25.80;23.22
80693;BME280;70055;39.436;-77.514;2023-05-10T03:50:48;99818.72;;;26.12;22.95
80693;BME280;70055;39.436;-77.514;2023-05-10T03:53:16;99822.97;;;25.98;23.05
80693;BME280;70055;39.436;-77.514;2023-05-10T03:55:44;99823.52;;;25.64;23.31
80693;BME280;70055;39.436;-77.514;2023-05-10T03:58:12;99821.91;;;25.56;23.37
80693;BME280;70055;39.436;-77.514;2023-05-10T04:00:42;99826.07;;;25.68;23.00
80693;BME280;70055;39.436;-77.514;2023-05-10T04:03:10;99833.22;;;25.97;22.92
80693;BME280;70055;39.436;-77.514;2023-05-10T04:05:38;99842.71;;;26.03;23.07
80693;BME280;70055;39.436;-77.514;2023-05-10T04:08:07;99842.61;;;25.85;23.04
80693;BME280;70055;39.436;-77.514;2023-05-10T04:10:35;99842.85;;;25.62;23.18
80693;BME280;70055;39.436;-77.514;2023-05-10T04:13:03;99844.46;;;25.56;23.04
80693;BME280;70055;39.436;-77.514;2023-05-10T04:15:31;99850.24;;;25.83;23.07
80693;BME280;70055;39.436;-77.514;2023-05-10T04:18:00;99853.45;;;25.65;23.13
80693;BME280;70055;39.436;-77.514;2023-05-10T04:20:28;99853.62;;;25.30;23.17
80693;BME280;70055;39.436;-77.514;2023-05-10T04:22:56;99852.13;;;25.41;23.10
80693;BME280;70055;39.436;-77.514;2023-05-10T04:25:25;99855.21;;;25.92;23.03
80693;BME280;70055;39.436;-77.514;2023-05-10T04:27:53;99857.23;;;25.56;23.11
80693;BME280;70055;39.436;-77.514;2023-05-10T04:30:21;99857.43;;;25.47;23.16
80693;BME280;70055;39.436;-77.514;2023-05-10T04:32:48;99859.01;;;25.73;23.07
80693;BME280;70055;39.436;-77.514;2023-05-10T04:35:17;99862.58;;;25.74;23.09
80693;BME280;70055;39.436;-77.514;2023-05-10T04:37:45;99866.14;;;25.90;22.88
80693;BME280;70055;39.436;-77.514;2023-05-10T04:40:13;99861.51;;;25.72;22.88
80693;BME280;70055;39.436;-77.514;2023-05-10T04:42:41;99861.19;;;25.46;23.14
80693;BME280;70055;39.436;-77.514;2023-05-10T04:45:10;99869.02;;;25.52;23.00
80693;BME280;70055;39.436;-77.514;2023-05-10T04:47:38;99873.86;;;25.73;23.01
80693;BME280;70055;39.436;-77.514;2023-05-10T04:50:07;99870.65;;;25.80;22.94
80693;BME280;70055;39.436;-77.514;2023-05-10T04:52:35;99879.49;;;25.35;23.10
80693;BME280;70055;39.436;-77.514;2023-05-10T04:55:03;99882.28;;;25.55;22.92
80693;BME280;70055;39.436;-77.514;2023-05-10T04:57:31;99888.50;;;25.56;22.88
80693;BME280;70055;39.436;-77.514;2023-05-10T05:00:00;99883.34;;;25.74;22.74
80693;BME280;70055;39.436;-77.514;2023-05-10T05:02:28;99882.62;;;25.69;22.52
80693;BME280;70055;39.436;-77.514;2023-05-10T05:04:56;99887.70;;;25.97;22.58
80693;BME280;70055;39.436;-77.514;2023-05-10T05:07:24;99886.57;;;25.71;22.78
80693;BME280;70055;39.436;-77.514;2023-05-10T05:09:52;99887.98;;;25.92;22.61
80693;BME280;70055;39.436;-77.514;2023-05-10T05:12:20;99888.52;;;25.96;22.55
80693;BME280;70055;39.436;-77.514;2023-05-10T05:14:48;99884.28;;;25.44;22.63
80693;BME280;70055;39.436;-77.514;2023-05-10T05:17:16;99887.97;;;25.64;22.76
80693;BME280;70055;39.436;-77.514;2023-05-10T05:19:44;99891.16;;;25.48;22.75
80693;BME280;70055;39.436;-77.514;2023-05-10T05:22:11;99893.30;;;25.73;22.66
80693;BME280;70055;39.436;-77.514;2023-05-10T05:24:39;99887.81;;;25.88;22.48
80693;BME280;70055;39.436;-77.514;2023-05-10T05:27:08;99889.14;;;25.22;22.52
80693;BME280;70055;39.436;-77.514;2023-05-10T05:29:36;99899.00;;;25.78;22.54
80693;BME280;70055;39.436;-77.514;2023-05-10T05:32:04;99899.04;;;25.89;22.42
80693;BME280;70055;39.436;-77.514;2023-05-10T05:34:32;99899.21;;;25.68;22.60
80693;BME280;70055;39.436;-77.514;2023-05-10T05:37:00;99901.45;;;25.44;22.72
80693;BME280;70055;39.436;-77.514;2023-05-10T05:39:28;99908.58;;;25.68;22.44
80693;BME280;70055;39.436;-77.514;2023-05-10T05:41:57;99913.24;;;25.59;22.59
80693;BME280;70055;39.436;-77.514;2023-05-10T05:44:25;99912.13;;;25.53;22.59
80693;BME280;70055;39.436;-77.514;2023-05-10T05:46:53;99906.67;;;25.52;22.62
80693;BME280;70055;39.436;-77.514;2023-05-10T05:49:21;99908.47;;;25.50;22.66
80693;BME280;70055;39.436;-77.514;2023-05-10T05:51:48;99913.35;;;25.64;22.38
80693;BME280;70055;39.436;-77.514;2023-05-10T05:54:16;99909.93;;;25.57;22.51
80693;BME280;70055;39.436;-77.514;2023-05-10T05:56:44;99911.58;;;25.65;22.31
80693;BME280;70055;39.436;-77.514;2023-05-10T05:59:12;99909.87;;;25.54;22.49
80693;BME280;70055;39.436;-77.514;2023-05-10T06:01:40;99910.63;;;25.05;22.72
80693;BME280;70055;39.436;-77.514;2023-05-10T06:04:09;99902.74;;;25.55;22.42
80693;BME280;70055;39.436;-77.514;2023-05-10T06:06:37;99898.63;;;25.14;22.50
80693;BME280;70055;39.436;-77.514;2023-05-10T06:09:05;99898.45;;;25.38;22.48
80693;BME280;70055;39.436;-77.514;2023-05-10T06:11:32;99899.18;;;25.22;22.28
80693;BME280;70055;39.436;-77.514;2023-05-10T06:14:01;99900.81;;;25.40;22.37
80693;BME280;70055;39.436;-77.514;2023-05-10T06:16:29;99897.24;;;25.30;22.46
80693;BME280;70055;39.436;-77.514;2023-05-10T06:18:57;99892.71;;;25.54;22.31
80693;BME280;70055;39.436;-77.514;2023-05-10T06:21:24;99890.40;;;25.58;22.14
80693;BME280;70055;39.436;-77.514;2023-05-10T06:23:52;99890.26;;;25.30;22.45
80693;BME280;70055;39.436;-77.514;2023-05-10T06:26:20;99893.79;;;25.33;22.45
80693;BME280;70055;39.436;-77.514;2023-05-10T06:28:48;99897.92;;;25.40;22.36
80693;BME280;70055;39.436;-77.514;2023-05-10T06:31:16;99899.38;;;25.26;22.51
80693;BME280;70055;39.436;-77.514;2023-05-10T06:33:43;99899.00;;;25.25;22.34
80693;BME280;70055;39.436;-77.514;2023-05-10T06:36:11;99905.95;;;25.07;22.24
80693;BME280;70055;39.436;-77.514;2023-05-10T06:38:39;99910.02;;;25.22;22.46
80693;BME280;70055;39.436;-77.514;2023-05-10T06:41:07;99908.22;;;25.18;22.47
80693;BME280;70055;39.436;-77.514;2023-05-10T06:43:35;99909.38;;;25.24;22.23
80693;BME280;70055;39.436;-77.514;2023-05-10T06:46:03;99908.21;;;25.30;22.26
80693;BME280;70055;39.436;-77.514;2023-05-10T06:48:31;99904.88;;;25.37;22.21
80693;BME280;70055;39.436;-77.514;2023-05-10T06:50:59;99903.73;;;25.35;22.21
80693;BME280;70055;39.436;-77.514;2023-05-10T06:53:27;99902.08;;;25.31;22.22
80693;BME280;70055;39.436;-77.514;2023-05-10T06:55:55;99899.85;;;25.17;22.31
80693;BME280;70055;39.436;-77.514;2023-05-10T06:58:23;99893.49;;;25.05;22.38
80693;BME280;70055;39.436;-77.514;2023-05-10T07:00:51;99895.21;;;25.40;22.01
80693;BME280;70055;39.436;-77.514;2023-05-10T07:03:20;99894.80;;;25.40;22.11
80693;BME280;70055;39.436;-77.514;2023-05-10T07:05:48;99898.74;;;25.06;22.28
80693;BME280;70055;39.436;-77.514;2023-05-10T07:08:17;99900.45;;;25.14;22.23
80693;BME280;70055;39.436;-77.514;2023-05-10T07:10:44;99909.07;;;24.97;22.36
80693;BME280;70055;39.436;-77.514;2023-05-10T07:13:12;99918.75;;;24.74;22.58
80693;BME280;70055;39.436;-77.514;2023-05-10T07:15:40;99921.39;;;24.64;22.61
80693;BME280;70055;39.436;-77.514;2023-05-10T07:18:08;99918.45;;;25.23;22.10
80693;BME280;70055;39.436;-77.514;2023-05-10T07:20:36;99923.54;;;24.79;22.46
80693;BME280;70055;39.436;-77.514;2023-05-10T07:23:04;99921.63;;;25.09;22.13
80693;BME280;70055;39.436;-77.514;2023-05-10T07:25:32;99921.44;;;25.14;22.14
80693;BME280;70055;39.436;-77.514;2023-05-10T07:28:01;99922.94;;;24.61;22.36
80693;BME280;70055;39.436;-77.514;2023-05-10T07:30:28;99917.71;;;24.93;22.27
80693;BME280;70055;39.436;-77.514;2023-05-10T07:32:57;99920.49;;;24.98;22.07
80693;BME280;70055;39.436;-77.514;2023-05-10T07:35:25;99918.21;;;25.09;22.04
80693;BME280;70055;39.436;-77.514;2023-05-10T07:37:53;99922.58;;;24.82;22.25
80693;BME280;70055;39.436;-77.514;2023-05-10T07:40:21;99919.30;;;24.99;22.10
80693;BME280;70055;39.436;-77.514;2023-05-10T07:42:48;99918.41;;;25.21;21.87
80693;BME280;70055;39.436;-77.514;2023-05-10T07:45:16;99915.68;;;25.14;21.99
80693;BME280;70055;39.436;-77.514;2023-05-10T07:47:45;99924.86;;;24.82;22.24
80693;BME280;70055;39.436;-77.514;2023-05-10T07:50:13;99920.83;;;25.05;21.97
80693;BME280;70055;39.436;-77.514;2023-05-10T07:52:41;99922.56;;;24.74;22.19
80693;BME280;70055;39.436;-77.514;2023-05-10T07:55:10;99923.14;;;24.98;22.04
80693;BME280;70055;39.436;-77.514;2023-05-10T07:57:38;99930.23;;;25.13;21.87
80693;BME280;70055;39.436;-77.514;2023-05-10T08:00:07;99925.06;;;25.21;21.98
80693;BME280;70055;39.436;-77.514;2023-05-10T08:02:36;99935.51;;;24.58;22.27
80693;BME280;70055;39.436;-77.514;2023-05-10T08:05:05;99930.70;;;24.71;21.89
80693;BME280;70055;39.436;-77.514;2023-05-10T08:07:33;99937.58;;;24.99;21.94
80693;BME280;70055;39.436;-77.514;2023-05-10T08:10:01;99950.85;;;24.94;21.97
80693;BME280;70055;39.436;-77.514;2023-05-10T08:12:29;99952.25;;;25.03;21.84
80693;BME280;70055;39.436;-77.514;2023-05-10T08:14:57;99959.60;;;24.73;22.08
80693;BME280;70055;39.436;-77.514;2023-05-10T08:17:25;99959.97;;;25.47;21.84
80693;BME280;70055;39.436;-77.514;2023-05-10T08:19:53;99951.11;;;24.87;21.97
80693;BME280;70055;39.436;-77.514;2023-05-10T08:22:20;99956.76;;;24.80;22.18
80693;BME280;70055;39.436;-77.514;2023-05-10T08:24:48;99959.48;;;25.13;21.90
80693;BME280;70055;39.436;-77.514;2023-05-10T08:27:16;99966.49;;;25.15;22.04
80693;BME280;70055;39.436;-77.514;2023-05-10T08:29:45;99963.44;;;24.54;22.02
80693;BME280;70055;39.436;-77.514;2023-05-10T08:32:13;99960.98;;;24.81;21.85
80693;BME280;70055;39.436;-77.514;2023-05-10T08:34:40;99958.18;;;24.55;22.11
80693;BME280;70055;39.436;-77.514;2023-05-10T08:37:08;99960.10;;;24.58;22.03
80693;BME280;70055;39.436;-77.514;2023-05-10T08:39:36;99963.28;;;24.48;22.07
80693;BME280;70055;39.436;-77.514;2023-05-10T08:42:05;99966.00;;;24.46;22.11
80693;BME280;70055;39.436;-77.514;2023-05-10T08:44:34;99967.03;;;24.73;21.83
80693;BME280;70055;39.436;-77.514;2023-05-10T08:47:06;99964.09;;;24.42;22.10
80693;BME280;70055;39.436;-77.514;2023-05-10T08:49:34;99964.27;;;24.97;22.06
80693;BME280;70055;39.436;-77.514;2023-05-10T08:52:04;99970.32;;;24.70;22.08
80693;BME280;70055;39.436;-77.514;2023-05-10T08:54:34;99968.93;;;24.77;21.71
80693;BME280;70055;39.436;-77.514;2023-05-10T08:57:02;99975.10;;;24.91;22.09
80693;BME280;70055;39.436;-77.514;2023-05-10T08:59:30;99981.79;;;24.50;21.95
80693;BME280;70055;39.436;-77.514;2023-05-10T09:02:00;99980.88;;;24.95;21.72
80693;BME280;70055;39.436;-77.514;2023-05-10T09:04:30;99986.32;;;24.94;21.85
80693;BME280;70055;39.436;-77.514;2023-05-10T09:06:58;99989.65;;;25.21;21.63
80693;BME280;70055;39.436;-77.514;2023-05-10T09:09:27;99989.63;;;24.82;21.65
80693;BME280;70055;39.436;-77.514;2023-05-10T09:11:56;99994.83;;;25.03;21.77
80693;BME280;70055;39.436;-77.514;2023-05-10T09:14:25;99998.50;;;24.86;21.69
80693;BME280;70055;39.436;-77.514;2023-05-10T09:16:53;100006.83;;;25.17;21.58
80693;BME280;70055;39.436;-77.514;2023-05-10T09:19:21;100007.75;;;25.02;21.46
80693;BME280;70055;39.436;-77.514;2023-05-10T09:21:49;100005.83;;;24.57;21.87
80693;BME280;70055;39.436;-77.514;2023-05-10T09:24:17;100004.36;;;24.70;21.49
80693;BME280;70055;39.436;-77.514;2023-05-10T09:26:49;100005.67;;;24.66;21.52
80693;BME280;70055;39.436;-77.514;2023-05-10T09:29:17;100012.25;;;25.14;21.52
80693;BME280;70055;39.436;-77.514;2023-05-10T09:31:47;100017.02;;;24.90;21.49
80693;BME280;70055;39.436;-77.514;2023-05-10T09:34:18;100017.14;;;24.82;21.75
80693;BME280;70055;39.436;-77.514;2023-05-10T09:36:54;100025.22;;;24.42;21.71
80693;BME280;70055;39.436;-77.514;2023-05-10T09:39:31;100023.25;;;25.24;21.37
80693;BME280;70055;39.436;-77.514;2023-05-10T09:42:01;100025.22;;;24.46;21.60
80693;BME280;70055;39.436;-77.514;2023-05-10T09:44:30;100035.19;;;24.71;21.76
80693;BME280;70055;39.436;-77.514;2023-05-10T09:46:58;100032.31;;;25.04;21.43
80693;BME280;70055;39.436;-77.514;2023-05-10T09:49:27;100038.59;;;24.76;21.74
80693;BME280;70055;39.436;-77.514;2023-05-10T09:52:04;100040.49;;;24.61;21.56
80693;BME280;70055;39.436;-77.514;2023-05-10T09:54:33;100045.66;;;24.76;21.60
80693;BME280;70055;39.436;-77.514;2023-05-10T09:57:01;100048.30;;;24.28;21.70
80693;BME280;70055;39.436;-77.514;2023-05-10T09:59:29;100058.69;;;24.66;21.74
80693;BME280;70055;39.436;-77.514;2023-05-10T10:01:59;100057.66;;;24.59;21.68
80693;BME280;70055;39.436;-77.514;2023-05-10T10:04:28;100062.34;;;24.42;21.65
80693;BME280;70055;39.436;-77.514;2023-05-10T10:07:04;100060.02;;;24.49;21.67
80693;BME280;70055;39.436;-77.514;2023-05-10T10:09:34;100072.53;;;24.88;21.51
80693;BME280;70055;39.436;-77.514;2023-05-10T10:12:03;100066.36;;;24.53;21.76
80693;BME280;70055;39.436;-77.514;2023-05-10T10:14:32;100070.11;;;24.59;21.51
80693;BME280;70055;39.436;-77.514;2023-05-10T10:17:02;100080.41;;;24.79;21.51
80693;BME280;70055;39.436;-77.514;2023-05-10T10:19:31;100092.57;;;24.58;21.61
80693;BME280;70055;39.436;-77.514;2023-05-10T10:22:00;100101.95;;;24.28;21.49
80693;BME280;70055;39.436;-77.514;2023-05-10T10:24:28;100109.84;;;24.49;21.55
80693;BME280;70055;39.436;-77.514;2023-05-10T10:26:59;100109.54;;;24.70;21.41
80693;BME280;70055;39.436;-77.514;2023-05-10T10:29:34;100120.81;;;24.30;21.63
80693;BME280;70055;39.436;-77.514;2023-05-10T10:32:11;100118.17;;;24.53;21.58
80693;BME280;70055;39.436;-77.514;2023-05-10T10:34:45;100120.30;;;24.69;21.36
80693;BME280;70055;39.436;-77.514;2023-05-10T10:37:15;100122.14;;;24.43;21.52
80693;BME280;70055;39.436;-77.514;2023-05-10T10:39:43;100122.52;;;24.64;21.45
80693;BME280;70055;39.436;-77.514;2023-05-10T10:42:11;100125.62;;;24.82;21.17
80693;BME280;70055;39.436;-77.514;2023-05-10T10:44:39;100129.14;;;24.52;21.53
80693;BME280;70055;39.436;-77.514;2023-05-10T10:47:20;100133.27;;;24.48;21.46
80693;BME280;70055;39.436;-77.514;2023-05-10T10:49:50;100144.49;;;24.35;21.66
80693;BME280;70055;39.436;-77.514;2023-05-10T10:52:25;100155.06;;;24.68;21.56
80693;BME280;70055;39.436;-77.514;2023-05-10T10:54:56;100158.45;;;24.02;21.64
80693;BME280;70055;39.436;-77.514;2023-05-10T10:57:26;100162.53;;;24.39;21.51
80693;BME280;70055;39.436;-77.514;2023-05-10T11:00:19;100154.01;;;24.42;21.39
80693;BME280;70055;39.436;-77.514;2023-05-10T11:02:49;100156.64;;;24.04;21.36
80693;BME280;70055;39.436;-77.514;2023-05-10T11:05:37;100157.89;;;24.05;21.90
80693;BME280;70055;39.436;-77.514;2023-05-10T11:08:11;100154.46;;;24.59;21.43
80693;BME280;70055;39.436;-77.514;2023-05-10T11:10:48;100150.30;;;24.42;21.47
80693;BME280;70055;39.436;-77.514;2023-05-10T11:13:21;100149.53;;;24.66;21.13
80693;BME280;70055;39.436;-77.514;2023-05-10T11:15:54;100145.13;;;24.43;21.10
80693;BME280;70055;39.436;-77.514;2023-05-10T11:18:25;100145.79;;;24.84;20.86
80693;BME280;70055;39.436;-77.514;2023-05-10T11:20:56;100146.80;;;24.52;20.84
80693;BME280;70055;39.436;-77.514;2023-05-10T11:23:31;100156.22;;;24.92;20.79
80693;BME280;70055;39.436;-77.514;2023-05-10T11:26:00;100158.02;;;24.87;20.49
80693;BME280;70055;39.436;-77.514;2023-05-10T11:28:28;100161.24;;;24.45;20.92
80693;BME280;70055;39.436;-77.514;2023-05-10T11:30:57;100163.31;;;24.74;20.92
80693;BME280;70055;39.436;-77.514;2023-05-10T11:33:25;100164.91;;;24.57;20.71
80693;BME280;70055;39.436;-77.514;2023-05-10T11:35:53;100165.63;;;24.91;20.70
80693;BME280;70055;39.436;-77.514;2023-05-10T11:38:21;100169.21;;;24.72;20.91
80693;BME280;70055;39.436;-77.514;2023-05-10T11:40:52;100168.87;;;24.51;20.89
80693;BME280;70055;39.436;-77.514;2023-05-10T11:43:24;100172.92;;;24.56;21.01
80693;BME280;70055;39.436;-77.514;2023-05-10T11:45:55;100177.11;;;24.66;21.25
80693;BME280;70055;39.436;-77.514;2023-05-10T11:48:23;100175.16;;;24.50;21.32
80693;BME280;70055;39.436;-77.514;2023-05-10T11:50:51;100177.03;;;24.85;21.25
80693;BME280;70055;39.436;-77.514;2023-05-10T11:53:20;100184.91;;;24.94;21.22
80693;BME280;70055;39.436;-77.514;2023-05-10T11:55:49;100180.37;;;24.62;21.32
80693;BME280;70055;39.436;-77.514;2023-05-10T11:58:18;100177.61;;;25.05;21.20
80693;BME280;70055;39.436;-77.514;2023-05-10T12:00:47;100177.15;;;24.71;21.27
80693;BME280;70055;39.436;-77.514;2023-05-10T12:03:15;100176.58;;;24.59;21.19
80693;BME280;70055;39.436;-77.514;2023-05-10T12:05:43;100182.58;;;25.05;21.34
80693;BME280;70055;39.436;-77.514;2023-05-10T12:08:13;100189.87;;;25.18;21.21
80693;BME280;70055;39.436;-77.514;2023-05-10T12:10:41;100193.45;;;24.82;21.28
80693;BME280;70055;39.436;-77.514;2023-05-10T12:13:12;100196.84;;;24.50;21.28
80693;BME280;70055;39.436;-77.514;2023-05-10T12:15:41;100197.14;;;24.86;21.33
80693;BME280;70055;39.436;-77.514;2023-05-10T12:18:10;100202.08;;;25.20;21.33
80693;BME280;70055;39.436;-77.514;2023-05-10T12:20:39;100211.69;;;25.05;21.18
80693;BME280;70055;39.436;-77.514;2023-05-10T12:23:09;100221.75;;;24.81;21.22
80693;BME280;70055;39.436;-77.514;2023-05-10T12:25:38;100220.07;;;24.73;21.32
80693;BME280;70055;39.436;-77.514;2023-05-10T12:28:08;100221.75;;;25.16;20.47
80693;BME280;70055;39.436;-77.514;2023-05-10T12:30:36;100223.69;;;25.29;20.31
80693;BME280;70055;39.436;-77.514;2023-05-10T12:33:08;100226.79;;;25.20;20.01
80693;BME280;70055;39.436;-77.514;2023-05-10T12:35:45;100231.44;;;24.87;20.56
80693;BME280;70055;39.436;-77.514;2023-05-10T12:38:31;100235.19;;;24.29;20.91
80693;BME280;70055;39.436;-77.514;2023-05-10T12:41:00;100233.74;;;24.79;20.62
80693;BME280;70055;39.436;-77.514;2023-05-10T12:43:30;100236.66;;;24.65;21.03
80693;BME280;70055;39.436;-77.514;2023-05-10T12:45:59;100236.00;;;24.23;21.15
80693;BME280;70055;39.436;-77.514;2023-05-10T12:48:31;100237.55;;;24.13;20.96
80693;BME280;70055;39.436;-77.514;2023-05-10T12:51:00;100236.46;;;24.41;21.08